This is the latest recevied weather packets stored in our database for station/object OE-11141. If no packets are shown the sender has not sent any weather packets the latest 10 day(s).
| Time | Temp. | Humidity | Pressure | Rain* | Wind** | Luminosity | Snow |
|---|---|---|---|---|---|---|---|
| 1787842505 | 31.11° C | 39% | 1010.1 hPa | 0 mm | - | 224 W/m² | - |
| 1787841678 | 31.11° C | 38% | 1010 hPa | 0 mm | - | 288 W/m² | - |
| 1787841305 | 31.67° C | 39% | 1009.8 hPa | 0 mm | - | 460 W/m² | - |
| 1787839878 | 31.11° C | 39% | 1010.3 hPa | 0 mm | - | 499 W/m² | - |
| 1787839505 | 30.56° C | 37% | 1010.4 hPa | 0 mm | - | 422 W/m² | - |
| 1787838905 | 30.56° C | 38% | 1010.5 hPa | 0 mm | - | 512 W/m² | - |
| 1787838078 | 30.56° C | 38% | 1010.6 hPa | 0 mm | - | 569 W/m² | - |
| 1787837705 | 30° C | 38% | 1010.8 hPa | 0 mm | - | 588 W/m² | - |
| 1787837105 | 29.44° C | 39% | 1010.8 hPa | 0 mm | - | 627 W/m² | - |
| 1787836278 | 29.44° C | 40% | 1011.1 hPa | 0 mm | - | 633 W/m² | - |
| 1787835904 | 28.89° C | 38% | 1011.3 hPa | 0 mm | - | 652 W/m² | - |
| 1787835305 | 28.33° C | 40% | 1011.6 hPa | 0 mm | - | 633 W/m² | - |
| 1787834478 | 28.33° C | 42% | 1011.7 hPa | 0 mm | - | 671 W/m² | - |
| 1787834104 | 27.78° C | 46% | 1011.7 hPa | 0 mm | - | 691 W/m² | - |
| 1787833505 | 27.78° C | 46% | 1012.2 hPa | 0 mm | - | 716 W/m² | - |
| 1787832678 | 27.78° C | 48% | 1012.5 hPa | 0 mm | - | 716 W/m² | - |
| 1787832305 | 27.22° C | 48% | 1012.7 hPa | 0 mm | - | 703 W/m² | - |
| 1787831704 | 26.67° C | 50% | 1012.8 hPa | 0 mm | - | 723 W/m² | - |
| 1787830878 | 26.67° C | 51% | 1012.9 hPa | 0 mm | - | 703 W/m² | - |
| 1787830504 | 26.11° C | 52% | 1013.3 hPa | 0 mm | - | 710 W/m² | - |
| 1787829904 | 25.56° C | 50% | 1013.5 hPa | 0 mm | - | 710 W/m² | - |
| 1787829078 | 25° C | 55% | 1013.8 hPa | 0 mm | - | 735 W/m² | - |
| 1787828705 | 24.44° C | 59% | 1014.2 hPa | 0 mm | - | 729 W/m² | - |
| 1787828105 | 23.89° C | 60% | 1014.5 hPa | 0 mm | - | 723 W/m² | - |
| 1787827277 | 23.89° C | 62% | 1014.5 hPa | 0 mm | - | 735 W/m² | - |
* Rain latest hour (hover to see other rain measurements)
** Current wind speed in m/s (hover to see current wind gust speed)